Overview Statistics Trail Chart Weather Telemetry Raw packets
 

This is the latest recevied weather packets stored in our database for station/object K1NOT-WX. If no packets are shown the sender has not sent any weather packets the latest 10 day(s).

<< 14 15 16 17 18 19 20 >>
Time Temp. Humidity Pressure Rain* Wind** Luminosity Snow
1777415232 13.89° C 63% 1014.2 hPa 0 mm - - -
1777414332 13.89° C 63% 1014.2 hPa 0 mm - - -
1777413432 13.89° C 63% 1014.2 hPa 0 mm - - -
1777412532 13.89° C 61% 1013.9 hPa 0 mm - - -
1777411632 14.44° C 61% 1014.2 hPa 0 mm - - -
1777410732 13.33° C 66% 1014.2 hPa 0 mm - - -
1777409832 12.78° C 67% 1014.2 hPa 0 mm - - -
1777408932 13.33° C 68% 1014.6 hPa 0 mm - - -
1777408032 12.78° C 71% 1014.2 hPa 0 mm - - -
1777407132 12.22° C 72% 1014.2 hPa 0 mm - - -
1777406232 12.22° C 74% 1014.6 hPa 0 mm - - -
1777405335 11.67° C 77% 1014.6 hPa 0 mm - - -
1777404432 11.67° C 77% 1014.6 hPa 0 mm - - -
1777403532 11.11° C 78% 1014.2 hPa 0 mm - - -
1777402632 11.11° C 80% 1014.2 hPa 0 mm - - -
1777401732 11.11° C 81% 1014.2 hPa 0 mm - - -
1777400832 10.56° C 83% 1013.9 hPa 0 mm - - -
1777399932 10.56° C 84% 1013.9 hPa 0 mm - - -
1777399033 10.56° C 84% 1013.9 hPa 0 mm - - -
1777398133 10° C 86% 1013.9 hPa 0 mm - - -
1777397233 10° C 89% 1013.9 hPa 0 mm - - -
1777396333 9.44° C 94% 1013.5 hPa 0 mm - - -
1777395433 9.44° C 95% 1013.5 hPa 0 mm - - -
1777394533 8.89° C 95% 1013.5 hPa 0 mm - - -
1777393633 8.89° C 95% 1013.5 hPa 0 mm - - -

* Rain latest hour (hover to see other rain measurements)
** Current wind speed in m/s (hover to see current wind gust speed)